Sun Valley, CA

11:08 AM PDT on October 01, 2014 (GMT -0700)
North Hollywood, CA | Change Station
CLOSE
Current Station
Personal Weather Station
Location: North Hollywood, CA
Elevation: 679 ft
Nearby Weather Stations

Elev 679 ft 34.18 °N, 118.37 °W | Updated 24 seconds ago

Clear
Clear
75.2 °F
Feels Like 78 °F
N
2.0
Wind Variable Wind from SSW
Gusts 2.0 mph

Today
High -- | Low -- °F
--% Chance of Precip.
Yesterday
High -- | Low -- °F
Precip. -- in
6:48 AM 6:37 PM
Waxing Crescent, 49% visible
Pressure 29.84 in
Visibility 10.0 miles
Clouds Clear
Heat Index 78 °F
Dew Point 55 °F
Humidity 49%
Rainfall 0.00 in
Snow Depth 2 in , 0 in , 0 in
UV 6 out of 12
Pollen 5.50 out of 12
Ozone Good
PM2.5 Moderate
Flu Activity Not available.
METAR KBUR 301753Z 00000KT 10SM CLR 26/08 A2988 RMK AO2 SLP103 T02610083 10261 20150 50000

More Conditions Fewer Conditions

Pressure 29.84 in
Visibility 10.0 miles
Clouds Clear
Heat Index 78 °F
Dew Point 55 °F
Humidity 49%
Rainfall 0.00 in
Snow Depth 2 in , 0 in , 0 in
UV 6 out of 12
Pollen 5.50 out of 12
Ozone Good
PM2.5 Moderate
Flu Activity Not available.
METAR KBUR 301753Z 00000KT 10SM CLR 26/08 A2988 RMK AO2 SLP103 T02610083 10261 20150 50000

More Conditions Fewer Conditions

10-Day Weather Forecast

Almanac

Astronomy

Oct. 01, 2014 Rise Set
Actual Time 6:48 AM PDT 6:37 PM PDT
Civil Twilight 6:23 AM PDT 7:02 PM PDT
Nautical Twilight 5:53 AM PDT 7:31 PM PDT
Astronomical Twilight 5:24 AM PDT 8:00 PM PDT
Moon 1:42 PM PDT No Moon Set
Length of Visible Light 12h 39m
Length of Day
11h 49m
Tomorrow will be 2m 6s shorter.
Waxing Crescent, 49% of the Moon is Illuminated
Today
Waxing Crescent
Oct 1
First Quarter
Oct 8
Full
Oct 15
Last Quarter
Oct 23
New

Today's Extremes

State Highs State Lows

Community

WunderPhotos

Upload Photos

1,758,005 photos uploaded!

WunderBlogs® & News

By Dr. Jeff Masters
Director of Meteorology, Weather Underground
By Kari Strenfel
Meteorologist, Weather Underground
By Christopher C. Burt
Weather Historian, Weather Underground
October 1, 2014
October 1, 2014
October 1, 2014

Nearby

Air Quality

  Air Quality AQ Index Pollutant
Yesterday Moderate
OZONE
Yesterday Moderate
PM2.5
Current Moderate
PM2.5
Current Good
OZONE
Wednesday Good
PM10
Wednesday Good
OZONE
Wednesday Good
CO
Wednesday Good
NO2

Snow Depth

Station Depth Elevation
CSS Lab 2 in 6900 ft
Sonora Pass 0 in 8800 ft
Monitor Pass 0 in 8350 ft
Adin Mountain 0 in 6200 ft
Blue Lakes 0 in 8000 ft

Earthquake Activity

City Distance Mag. Time & Date
Shandon, California 156 miles 2.9 5:34 PM PDT
2014-09-30
Avalon, California 77 miles 2.6 1:28 PM PDT
2014-09-30
Minimum magnitude displayed is 2.5.

Coastal Water Temperatures

Place Temperature
Santa Monica Pier 66.9 °F
Los Angeles, CA 66.9 °F
La Jolla, CA 72.0 °F

Nearby Weather Stations